createdAt,value
2023-01-15T00:02:11.168Z,99295.72
2023-01-15T00:07:14.786Z,99280.59
2023-01-15T00:12:16.533Z,99277.78
2023-01-15T00:17:18.662Z,99280.16
2023-01-15T00:22:22.305Z,99284.59
2023-01-15T00:27:24.782Z,99272.16
2023-01-15T00:32:26.834Z,99261.34
2023-01-15T00:37:30.328Z,99246.34
2023-01-15T00:42:32.414Z,99240.88
2023-01-15T00:47:34.484Z,99223.16
2023-01-15T00:52:38.201Z,99242.63
2023-01-15T00:57:40.211Z,99210.47
2023-01-15T01:02:42.395Z,99213.88
2023-01-15T01:07:45.948Z,99210.19
2023-01-15T01:12:48.433Z,99208.53
2023-01-15T01:17:50.236Z,99215.38
2023-01-15T01:22:53.984Z,99218.78
2023-01-15T01:27:56.393Z,99223.81
2023-01-15T01:32:58.513Z,99220.19
2023-01-15T01:38:02.155Z,99192.69
2023-01-15T01:43:04.096Z,99203.19
2023-01-15T01:48:07.567Z,99199.25
2023-01-15T01:53:15.328Z,99210.97
2023-01-15T01:58:18.530Z,99214.69
2023-01-15T02:03:24.305Z,99210.41
2023-01-15T02:08:27.855Z,99207.16
2023-01-15T02:13:37.133Z,99190.56
2023-01-15T02:18:47.370Z,99210.75
2023-01-15T02:24:12.702Z,99207.41
2023-01-15T02:29:23.723Z,99193.25
2023-01-15T02:34:29.809Z,99195.19
2023-01-15T02:39:35.945Z,99187.34
2023-01-15T02:44:44.546Z,99176.84
2023-01-15T02:49:47.373Z,99161.88
2023-01-15T02:54:55.172Z,99176.00
2023-01-15T03:00:03.536Z,99176.88
2023-01-15T03:05:09.584Z,99182.22
2023-01-15T03:10:12.324Z,99165.53
2023-01-15T03:15:20.773Z,99182.13
2023-01-15T03:20:26.364Z,99177.75
2023-01-15T03:25:34.554Z,99191.03
2023-01-15T03:30:38.389Z,99176.13
2023-01-15T03:35:45.871Z,99178.69
2023-01-15T03:40:58.021Z,99188.34
2023-01-15T03:46:07.278Z,99192.94
2023-01-15T03:51:16.652Z,99186.75
2023-01-15T03:56:25.022Z,99184.94
2023-01-15T04:01:35.285Z,99186.78
2023-01-15T04:06:40.235Z,99258.75
2023-01-15T04:11:42.348Z,99281.47
2023-01-15T04:16:45.678Z,99291.72
2023-01-15T04:21:47.794Z,99304.34
2023-01-15T04:26:49.728Z,99312.44
2023-01-15T04:31:53.507Z,99318.88
2023-01-15T04:36:56.455Z,99334.19
2023-01-15T04:41:58.795Z,99345.06
2023-01-15T04:47:02.363Z,99355.78
2023-01-15T04:52:04.775Z,99341.19
2023-01-15T04:57:07.593Z,99333.41
2023-01-15T05:02:11.138Z,99352.84
2023-01-15T05:07:13.266Z,99346.00
2023-01-15T05:12:15.338Z,99343.38
2023-01-15T05:17:18.999Z,99344.34
2023-01-15T05:22:21.079Z,99341.94
2023-01-15T05:27:23.274Z,99340.28
2023-01-15T05:32:27.124Z,99357.81
2023-01-15T05:37:30.693Z,99344.50
2023-01-15T05:42:32.721Z,99334.94
2023-01-15T05:47:36.217Z,99339.38
2023-01-15T05:52:38.309Z,99339.44
2023-01-15T05:57:40.331Z,99325.44
2023-01-15T06:02:43.739Z,99343.06
2023-01-15T06:07:48.009Z,99325.59
2023-01-15T06:12:50.217Z,99330.03
2023-01-15T06:17:53.780Z,99326.56
2023-01-15T06:22:55.940Z,99330.94
2023-01-15T06:27:58.856Z,99346.84
2023-01-15T06:33:03.339Z,99349.50
2023-01-15T06:38:05.396Z,99352.13
2023-01-15T06:43:09.363Z,99358.34
2023-01-15T06:48:12.988Z,99350.47
2023-01-15T06:53:14.774Z,99355.75
2023-01-15T06:58:17.148Z,99348.78
2023-01-15T07:03:20.929Z,99350.56
2023-01-15T07:08:22.978Z,99357.59
2023-01-15T07:13:25.310Z,99362.88
2023-01-15T07:18:30.645Z,99361.16
2023-01-15T07:23:32.832Z,99368.25
2023-01-15T07:28:35.546Z,99376.97
2023-01-15T07:33:39.380Z,99380.50
2023-01-15T07:38:41.688Z,99368.28
2023-01-15T07:43:43.625Z,99392.75
2023-01-15T07:48:47.360Z,99396.19
2023-01-15T07:53:49.162Z,99400.53
2023-01-15T07:58:51.258Z,99411.88
2023-01-15T08:03:54.335Z,99417.22
2023-01-15T08:08:56.065Z,99390.94
2023-01-15T08:13:57.769Z,99375.09
2023-01-15T08:19:01.223Z,99382.97
2023-01-15T08:24:02.936Z,99392.56
2023-01-15T08:29:04.668Z,99401.34
2023-01-15T08:34:08.585Z,99402.22
2023-01-15T08:39:10.978Z,99407.41
2023-01-15T08:44:12.659Z,99415.19
2023-01-15T08:49:16.720Z,99383.63
2023-01-15T08:54:20.105Z,99392.31
2023-01-15T08:59:22.435Z,99421.19
2023-01-15T09:04:25.549Z,99431.72
2023-01-15T09:09:27.676Z,99443.06
2023-01-15T09:14:56.340Z,99414.97
2023-01-15T09:19:53.736Z,99416.59
2023-01-15T09:24:55.802Z,99433.97
2023-01-15T09:29:58.019Z,99428.66
2023-01-15T09:35:01.626Z,99437.31
2023-01-15T09:40:04.274Z,99444.28
2023-01-15T09:45:18.612Z,99456.41
2023-01-15T09:50:34.643Z,99450.16
2023-01-15T09:55:43.330Z,99450.94
2023-01-15T10:00:48.370Z,99444.69
2023-01-15T10:06:02.214Z,99448.13
2023-01-15T10:11:20.343Z,99426.06
2023-01-15T10:16:24.861Z,99423.41
2023-01-15T10:21:39.525Z,99441.59
2023-01-15T10:26:50.516Z,99429.28
2023-01-15T10:31:54.333Z,99428.19
2023-01-15T10:37:03.452Z,99437.72
2023-01-15T10:42:17.516Z,99429.69
2023-01-15T10:47:29.538Z,99435.78
2023-01-15T10:52:37.951Z,99431.34
2023-01-15T10:57:46.529Z,99455.69
2023-01-15T11:02:57.107Z,99454.63
2023-01-15T11:08:28.631Z,99438.91
2023-01-15T11:13:26.779Z,99434.59
2023-01-15T11:18:32.198Z,99444.34
2023-01-15T11:23:36.700Z,99454.91
2023-01-15T11:28:40.172Z,99444.34
2023-01-15T11:33:44.947Z,99449.78
2023-01-15T11:38:50.307Z,99451.38
2023-01-15T11:43:55.813Z,99444.41
2023-01-15T11:48:57.549Z,99436.56
2023-01-15T11:54:04.698Z,99440.91
2023-01-15T11:59:12.505Z,99438.25
2023-01-15T12:04:26.993Z,99445.19
2023-01-15T12:09:43.419Z,99437.31
2023-01-15T12:14:59.084Z,99431.97
2023-01-15T12:20:12.068Z,99437.16
2023-01-15T12:25:25.610Z,99430.16
2023-01-15T12:30:37.634Z,99437.22
2023-01-15T12:35:44.912Z,99430.03
2023-01-15T12:40:53.631Z,99423.81
2023-01-15T12:45:56.620Z,99416.81
2023-01-15T12:51:01.679Z,99425.75
2023-01-15T12:56:15.617Z,99430.16
2023-01-15T13:01:26.340Z,99421.28
2023-01-15T13:06:29.176Z,99406.16
2023-01-15T13:11:33.101Z,99414.78
2023-01-15T13:16:45.361Z,99413.84
2023-01-15T13:21:49.881Z,99428.06
2023-01-15T13:27:13.537Z,99425.78
2023-01-15T13:32:20.306Z,99417.19
2023-01-15T13:37:27.674Z,99424.50
2023-01-15T13:42:31.841Z,99420.31
2023-01-15T13:47:37.135Z,99422.94
2023-01-15T13:52:39.242Z,99423.75
2023-01-15T13:57:45.720Z,99427.72
2023-01-15T14:02:53.273Z,99431.97
2023-01-15T14:07:55.267Z,99442.78
2023-01-15T14:13:29.633Z,99452.75
2023-01-15T14:18:53.638Z,99467.81
2023-01-15T14:24:11.278Z,99466.13
2023-01-15T14:29:43.734Z,99496.16
2023-01-15T14:34:55.868Z,99496.22
2023-01-15T14:40:00.295Z,99511.19
2023-01-15T14:45:07.314Z,99515.72
2023-01-15T14:50:34.333Z,99515.81
2023-01-15T14:55:46.318Z,99543.84
2023-01-15T15:00:55.671Z,99548.47
2023-01-15T15:05:58.340Z,99541.50
2023-01-15T15:11:02.521Z,99540.78
2023-01-15T15:16:13.041Z,99549.66
2023-01-15T15:21:21.150Z,99545.38
2023-01-15T15:26:26.203Z,99551.59
2023-01-15T15:31:33.567Z,99556.00
2023-01-15T15:36:39.633Z,99551.75
2023-01-15T15:41:46.139Z,99544.88
2023-01-15T15:46:50.544Z,99545.75
2023-01-15T15:51:54.277Z,99548.44
2023-01-15T15:56:59.226Z,99546.84
2023-01-15T16:02:17.075Z,99547.84
2023-01-15T16:07:23.487Z,99541.69
2023-01-15T16:12:29.484Z,99531.16
2023-01-15T16:17:34.238Z,99547.06
2023-01-15T16:22:36.344Z,99534.72
2023-01-15T16:27:38.497Z,99537.28
2023-01-15T16:32:43.381Z,99536.41
2023-01-15T16:37:49.315Z,99545.28
2023-01-15T16:43:03.833Z,99534.63
2023-01-15T16:48:27.493Z,99539.94
2023-01-15T16:53:36.612Z,99537.28
2023-01-15T16:58:40.153Z,99537.25
2023-01-15T17:03:43.468Z,99531.97
2023-01-15T17:08:49.258Z,99527.53
2023-01-15T17:13:51.283Z,99534.56
2023-01-15T17:18:54.519Z,99536.34
2023-01-15T17:23:56.952Z,99528.50
2023-01-15T17:28:58.862Z,99530.16
2023-01-15T17:34:03.118Z,99546.78
2023-01-15T17:39:04.879Z,99538.00
2023-01-15T17:44:06.714Z,99538.09
2023-01-15T17:49:10.007Z,99553.88
2023-01-15T17:54:11.870Z,99552.03
2023-01-15T17:59:13.792Z,99544.06
2023-01-15T18:04:24.555Z,99553.75
2023-01-15T18:09:26.406Z,99558.97
2023-01-15T18:14:28.488Z,99560.69
2023-01-15T18:19:31.693Z,99556.28
2023-01-15T18:24:33.909Z,99557.28
2023-01-15T18:29:36.283Z,99554.41
2023-01-15T18:34:39.789Z,99563.16
2023-01-15T18:39:41.870Z,99564.19
2023-01-15T18:44:43.991Z,99561.47
2023-01-15T18:49:47.569Z,99559.66
2023-01-15T18:54:49.549Z,99566.72
2023-01-15T18:59:52.290Z,99568.50
2023-01-15T19:04:55.651Z,99555.34
2023-01-15T19:09:57.951Z,99567.72
2023-01-15T19:15:00.106Z,99568.56
2023-01-15T19:20:04.955Z,99560.53
2023-01-15T19:25:07.851Z,99571.97
2023-01-15T19:30:11.103Z,99571.00
2023-01-15T19:35:14.971Z,99572.84
2023-01-15T19:40:18.038Z,99567.66
2023-01-15T19:45:20.698Z,99577.41
2023-01-15T19:50:30.504Z,99580.09
2023-01-15T19:55:33.395Z,99570.50
2023-01-15T20:00:37.822Z,99581.88
2023-01-15T20:05:42.966Z,99575.72
2023-01-15T20:10:46.451Z,99573.09
2023-01-15T20:15:48.403Z,99573.13
2023-01-15T20:20:55.004Z,99573.94
2023-01-15T20:26:01.819Z,99574.94
2023-01-15T20:31:04.320Z,99583.75
2023-01-15T20:36:09.192Z,99576.75
2023-01-15T20:41:11.951Z,99588.16
2023-01-15T20:46:13.738Z,99578.53
2023-01-15T20:51:17.326Z,99582.03
2023-01-15T20:56:19.513Z,99577.56
2023-01-15T21:01:21.760Z,99583.78
2023-01-15T21:06:25.441Z,99579.41
2023-01-15T21:11:27.543Z,99592.63
2023-01-15T21:16:29.472Z,99592.63
2023-01-15T21:21:32.793Z,99589.91
2023-01-15T21:26:34.919Z,99581.88
2023-01-15T21:31:36.887Z,99594.09
2023-01-15T21:36:39.978Z,99599.50
2023-01-15T21:41:42.778Z,99592.47
2023-01-15T21:46:44.486Z,99594.19
2023-01-15T21:51:48.137Z,99604.69
2023-01-15T21:56:49.853Z,99606.47
2023-01-15T22:01:53.133Z,99606.53
2023-01-15T22:06:56.629Z,99597.81
2023-01-15T22:11:58.736Z,99599.63
2023-01-15T22:17:02.955Z,99593.59
2023-01-15T22:22:08.616Z,99587.44
2023-01-15T22:27:15.074Z,99582.28
2023-01-15T22:32:17.097Z,99577.88
2023-01-15T22:37:20.702Z,99588.50
2023-01-15T22:42:22.484Z,99576.28
2023-01-15T22:47:24.688Z,99598.25
2023-01-15T22:52:28.462Z,99600.88
2023-01-15T22:57:30.509Z,99586.88
2023-01-15T23:02:32.176Z,99593.75
2023-01-15T23:07:35.557Z,99589.31
2023-01-15T23:12:37.277Z,99593.59
2023-01-15T23:17:39.630Z,99589.25
2023-01-15T23:22:43.133Z,99591.88
2023-01-15T23:27:45.296Z,99590.97
2023-01-15T23:32:47.384Z,99588.41
2023-01-15T23:37:50.939Z,99591.03
2023-01-15T23:42:53.226Z,99588.50
2023-01-15T23:47:55.708Z,99589.47
2023-01-15T23:52:59.566Z,99584.22
2023-01-15T23:58:01.579Z,99566.69
